Time;durP1;ratioP1;P1;durP2;ratioP2;P2;SDS_P1;SDS_P2;PMS_P1;PMS_P2;Temp;Humidity;BMP_temperature;BMP_pressure;BME280_temperature;BME280_humidity;BME280_pressure;Samples;Min_cycle;Max_cycle;Signal;HPM_P1;HPM_P2
2023/12/04 05:08:24;;;;;;;;;;;10.80;85.30;;;;;;5075119;28;19992;-76
2023/12/04 05:10:50;;;;;;;;;;;10.60;89.80;;;;;;5074999;28;20370;-76
2023/12/04 05:13:15;;;;;;;;;;;10.80;90.20;;;;;;5074998;28;19999;-76
2023/12/04 05:15:41;;;;;;;;;;;10.90;90.20;;;;;;5074763;28;19986;-76
2023/12/04 05:18:06;;;;;;;;;;;10.70;90.20;;;;;;5074951;28;19995;-77
2023/12/04 05:20:32;;;;;;;;;;;10.90;90.20;;;;;;5074959;28;19909;-76
2023/12/04 05:22:57;;;;;;;;;;;10.80;90.20;;;;;;5074803;28;19912;-77
2023/12/04 05:25:23;;;;;;;;;;;10.80;90.20;;;;;;5074720;28;19908;-75
2023/12/04 05:27:48;;;;;;;;;;;10.80;90.20;;;;;;5074650;28;20374;-77
2023/12/04 05:30:14;;;;;;;;;;;10.80;90.30;;;;;;5074619;28;19915;-77
2023/12/04 05:32:40;;;;;;;;;;;10.80;90.30;;;;;;5074683;28;20331;-77
2023/12/04 05:35:05;;;;;;;;;;;10.80;90.30;;;;;;5075095;28;19930;-77
2023/12/04 05:37:31;;;;;;;;;;;10.80;90.00;;;;;;5074391;28;20373;-76
2023/12/04 05:39:57;;;;;;;;;;;10.80;90.30;;;;;;5074469;28;19916;-77
2023/12/04 05:42:23;;;;;;;;;;;11.00;90.30;;;;;;5074429;28;19962;-77
2023/12/04 05:44:48;;;;;;;;;;;10.70;90.20;;;;;;5074371;28;19914;-77
2023/12/04 05:47:14;;;;;;;;;;;10.90;90.20;;;;;;5074346;28;19913;-76
2023/12/04 05:49:40;;;;;;;;;;;10.80;90.20;;;;;;5074140;28;20008;-76
2023/12/04 05:52:06;;;;;;;;;;;11.10;90.40;;;;;;5073800;28;19916;-76
2023/12/04 05:54:31;;;;;;;;;;;11.20;90.30;;;;;;5074035;28;20011;-77
2023/12/04 05:56:57;;;;;;;;;;;10.80;90.10;;;;;;5073992;28;19920;-76
2023/12/04 05:59:22;;;;;;;;;;;10.80;90.20;;;;;;5073968;28;19915;-76
2023/12/04 06:01:48;;;;;;;;;;;10.80;90.00;;;;;;5074070;28;20069;-76
2023/12/04 06:04:13;;;;;;;;;;;10.90;90.40;;;;;;5074594;28;19908;-77
2023/12/04 06:06:39;;;;;;;;;;;10.80;90.20;;;;;;5073714;28;19915;-76
2023/12/04 06:09:05;;;;;;;;;;;10.90;90.30;;;;;;5073892;28;19908;-77
2023/12/04 06:11:30;;;;;;;;;;;10.80;90.10;;;;;;5073366;28;19909;-76
2023/12/04 06:13:56;;;;;;;;;;;11.10;90.10;;;;;;5073067;28;19999;-79
2023/12/04 06:16:22;;;;;;;;;;;11.00;90.20;;;;;;5077868;28;19916;-75
2023/12/04 06:18:48;;;;;;;;;;;10.70;90.20;;;;;;5073735;28;19916;-76
2023/12/04 06:21:14;;;;;;;;;;;10.80;90.30;;;;;;5073540;28;19908;-75
2023/12/04 06:23:40;;;;;;;;;;;10.80;90.30;;;;;;5073567;28;19908;-75
2023/12/04 06:26:06;;;;;;;;;;;10.70;89.60;;;;;;5073442;28;19927;-75
2023/12/04 06:28:32;;;;;;;;;;;10.70;88.80;;;;;;5073394;28;19999;-74
2023/12/04 06:30:58;;;;;;;;;;;10.70;90.20;;;;;;5073641;28;19912;-74
2023/12/04 06:33:23;;;;;;;;;;;10.70;89.60;;;;;;5073340;28;19908;-73
2023/12/04 06:35:49;;;;;;;;;;;10.70;89.70;;;;;;5073111;28;19986;-74
2023/12/04 06:38:16;;;;;;;;;;;10.70;90.20;;;;;;5073546;28;20242;-74
2023/12/04 06:40:42;;;;;;;;;;;10.70;90.30;;;;;;5073086;28;19908;-74
2023/12/04 06:43:08;;;;;;;;;;;10.70;90.20;;;;;;5073060;28;19955;-74
2023/12/04 06:45:34;;;;;;;;;;;10.60;90.10;;;;;;5073312;28;19912;-74
2023/12/04 06:48:00;;;;;;;;;;;10.70;89.40;;;;;;5073250;28;19917;-73
2023/12/04 06:50:26;;;;;;;;;;;10.70;90.20;;;;;;5073670;28;20282;-74
2023/12/04 06:52:52;;;;;;;;;;;10.60;90.10;;;;;;5073285;28;20298;-74
2023/12/04 06:55:18;;;;;;;;;;;10.70;90.30;;;;;;5072963;28;19913;-74
2023/12/04 06:57:44;;;;;;;;;;;10.70;90.40;;;;;;5072982;28;20339;-73
2023/12/04 07:00:14;;;;;;;;;;;10.70;90.40;;;;;;5072970;28;19912;-74
2023/12/04 07:02:39;;;;;;;;;;;10.70;90.20;;;;;;5072208;28;19947;-73
2023/12/04 07:05:05;;;;;;;;;;;12.20;90.70;;;;;;5072858;28;19908;-74
2023/12/04 07:07:31;;;;;;;;;;;10.50;89.50;;;;;;5072848;28;19916;-73
2023/12/04 07:09:58;;;;;;;;;;;10.70;90.60;;;;;;5072804;28;19980;-73
2023/12/04 07:12:24;;;;;;;;;;;10.80;90.70;;;;;;5072785;28;20374;-74
2023/12/04 07:14:50;;;;;;;;;;;10.70;90.70;;;;;;5073520;28;19962;-73
2023/12/04 07:17:16;;;;;;;;;;;10.80;90.80;;;;;;5072827;28;19920;-73
2023/12/04 07:19:42;;;;;;;;;;;10.80;90.50;;;;;;5073464;28;19908;-73
2023/12/04 07:22:08;;;;;;;;;;;10.80;90.70;;;;;;5072935;28;19927;-73
2023/12/04 07:24:34;;;;;;;;;;;10.80;90.70;;;;;;5072989;28;19908;-73
2023/12/04 07:27:00;;;;;;;;;;;10.80;90.90;;;;;;5072892;28;20302;-72
2023/12/04 07:29:25;;;;;;;;;;;10.90;90.80;;;;;;5072587;28;19908;-72
2023/12/04 07:31:51;;;;;;;;;;;11.20;90.90;;;;;;5072412;28;19909;-73
2023/12/04 07:34:17;;;;;;;;;;;10.90;90.80;;;;;;5072604;28;19919;-76
2023/12/04 07:36:44;;;;;;;;;;;10.80;90.80;;;;;;5072516;28;19917;-76
2023/12/04 07:39:10;;;;;;;;;;;10.90;90.80;;;;;;5072469;28;20382;-76
2023/12/04 07:41:36;;;;;;;;;;;10.90;90.90;;;;;;5072614;28;19908;-75
2023/12/04 07:44:02;;;;;;;;;;;10.90;91.00;;;;;;5072398;28;20306;-75
2023/12/04 07:46:27;;;;;;;;;;;10.90;90.90;;;;;;5087788;28;19949;-76
2023/12/04 07:48:53;;;;;;;;;;;10.90;90.70;;;;;;5072721;28;20008;-71
2023/12/04 07:51:18;;;;;;;;;;;11.00;90.80;;;;;;5072014;28;20344;-71
2023/12/04 07:53:44;;;;;;;;;;;10.90;90.60;;;;;;5072130;28;19909;-71
2023/12/04 07:56:09;;;;;;;;;;;10.90;90.50;;;;;;5071835;28;19924;-71
2023/12/04 07:58:35;;;;;;;;;;;11.00;90.00;;;;;;5072338;28;19908;-72
2023/12/04 08:01:00;;;;;;;;;;;11.00;90.60;;;;;;5072263;28;20370;-72
2023/12/04 08:03:26;;;;;;;;;;;11.00;90.50;;;;;;5071834;28;19928;-72
2023/12/04 08:05:52;;;;;;;;;;;11.10;90.70;;;;;;5072035;28;19908;-72
2023/12/04 08:08:18;;;;;;;;;;;11.00;90.50;;;;;;5072391;28;19916;-73
2023/12/04 08:10:44;;;;;;;;;;;11.20;90.70;;;;;;5072175;28;19912;-74
2023/12/04 08:13:10;;;;;;;;;;;11.10;90.70;;;;;;5072341;28;20001;-73
2023/12/04 08:15:36;;;;;;;;;;;11.30;90.80;;;;;;5076747;28;19927;-74
2023/12/04 08:18:02;;;;;;;;;;;11.40;90.80;;;;;;5076217;28;19908;-75
2023/12/04 08:20:28;;;;;;;;;;;11.10;90.60;;;;;;5076218;28;20003;-75
2023/12/04 08:22:54;;;;;;;;;;;11.50;90.80;;;;;;5075866;28;20378;-74
2023/12/04 08:25:20;;;;;;;;;;;11.10;90.70;;;;;;5075882;28;20357;-74
2023/12/04 08:27:45;;;;;;;;;;;11.20;90.70;;;;;;5075930;28;19947;-74
2023/12/04 08:30:11;;;;;;;;;;;11.70;90.80;;;;;;5075736;28;19908;-76
2023/12/04 08:32:37;;;;;;;;;;;11.10;90.30;;;;;;5075735;28;19959;-75
2023/12/04 08:35:05;;;;;;;;;;;11.20;90.60;;;;;;5075724;28;20362;-73
2023/12/04 08:37:31;;;;;;;;;;;11.20;90.50;;;;;;5075775;28;19967;-73
2023/12/04 08:39:56;;;;;;;;;;;11.10;90.50;;;;;;5075594;28;19908;-74
2023/12/04 08:42:22;;;;;;;;;;;11.20;90.50;;;;;;5075762;28;19915;-74
2023/12/04 08:44:48;;;;;;;;;;;11.30;90.60;;;;;;5075789;28;19909;-74
2023/12/04 08:47:13;;;;;;;;;;;11.20;90.40;;;;;;5075534;28;19954;-73
2023/12/04 08:49:40;;;;;;;;;;;11.60;90.60;;;;;;5075437;28;19912;-74
2023/12/04 08:52:09;;;;;;;;;;;11.50;90.80;;;;;;5076879;28;19909;-72
2023/12/04 08:54:35;;;;;;;;;;;11.40;86.50;;;;;;5075331;28;19909;-73
2023/12/04 08:57:00;;;;;;;;;;;11.60;90.90;;;;;;5075395;28;19939;-74
2023/12/04 08:59:26;;;;;;;;;;;11.20;90.40;;;;;;5075177;28;20378;-75
2023/12/04 09:01:51;;;;;;;;;;;11.30;90.50;;;;;;5074980;28;20363;-74
2023/12/04 09:04:17;;;;;;;;;;;11.40;90.60;;;;;;5075198;28;19974;-75
2023/12/04 09:06:43;;;;;;;;;;;11.50;90.60;;;;;;5075158;28;19943;-74
2023/12/04 09:09:08;;;;;;;;;;;11.40;90.60;;;;;;5074995;28;19908;-75
2023/12/04 09:11:34;;;;;;;;;;;11.40;90.70;;;;;;5075043;28;19999;-73
2023/12/04 09:13:59;;;;;;;;;;;11.50;90.70;;;;;;5075493;28;20361;-74
2023/12/04 09:16:24;;;;;;;;;;;11.50;90.60;;;;;;5074890;28;19923;-74
2023/12/04 09:18:50;;;;;;;;;;;11.50;90.50;;;;;;5074960;28;19908;-74
2023/12/04 09:21:16;;;;;;;;;;;11.50;90.50;;;;;;5074819;28;19916;-74
2023/12/04 09:23:42;;;;;;;;;;;11.50;90.50;;;;;;5074766;28;20406;-73
2023/12/04 09:26:08;;;;;;;;;;;11.50;90.50;;;;;;5073929;28;19908;-72
2023/12/04 09:28:35;;;;;;;;;;;11.50;90.40;;;;;;5074602;28;19943;-72
2023/12/04 09:31:00;;;;;;;;;;;11.60;90.40;;;;;;5074977;28;20281;-75
2023/12/04 09:33:26;;;;;;;;;;;11.60;90.50;;;;;;5074648;28;19999;-75
2023/12/04 09:35:52;;;;;;;;;;;11.50;90.40;;;;;;5074554;28;19916;-77
2023/12/04 09:38:17;;;;;;;;;;;11.60;90.40;;;;;;5074650;28;19912;-76
2023/12/04 09:40:43;;;;;;;;;;;11.30;90.40;;;;;;5074472;28;19916;-73
2023/12/04 09:43:08;;;;;;;;;;;11.60;90.40;;;;;;5075035;28;19977;-73
2023/12/04 09:45:35;;;;;;;;;;;11.60;90.40;;;;;;5074421;28;19915;-73
2023/12/04 09:48:00;;;;;;;;;;;11.70;90.50;;;;;;5074580;28;19915;-73
2023/12/04 09:50:26;;;;;;;;;;;11.60;90.50;;;;;;5074278;28;19909;-74
2023/12/04 09:52:52;;;;;;;;;;;11.60;90.40;;;;;;5074286;28;19908;-76
2023/12/04 09:55:18;;;;;;;;;;;11.70;90.50;;;;;;5074227;28;19954;-76
2023/12/04 09:57:45;;;;;;;;;;;11.70;90.60;;;;;;5074310;28;20325;-75
2023/12/04 10:00:12;;;;;;;;;;;11.70;90.60;;;;;;5074136;28;19930;-76
2023/12/04 10:02:39;;;;;;;;;;;11.70;90.20;;;;;;5073238;28;20309;-75
2023/12/04 10:05:05;;;;;;;;;;;11.70;90.60;;;;;;5073294;28;19983;-75
2023/12/04 10:07:31;;;;;;;;;;;11.70;89.60;;;;;;5072951;28;20381;-76
2023/12/04 10:09:57;;;;;;;;;;;11.70;90.30;;;;;;5073712;28;19913;-75
2023/12/04 10:12:24;;;;;;;;;;;11.70;90.30;;;;;;5072872;28;20370;-76
2023/12/04 10:15:07;;;;;;;;;;;11.70;90.40;;;;;;5073156;28;19912;-76
2023/12/04 10:17:39;;;;;;;;;;;11.70;85.80;;;;;;5055251;28;20023;-75
2023/12/04 10:20:12;;;;;;;;;;;11.80;85.80;;;;;;5072989;28;20280;-75
2023/12/04 10:23:01;;;;;;;;;;;11.80;90.40;;;;;;5072612;28;19912;-74
2023/12/04 10:25:30;;;;;;;;;;;11.70;86.10;;;;;;5059426;28;20350;-74
2023/12/04 10:28:10;;;;;;;;;;;11.70;90.60;;;;;;5072543;28;19908;-74
2023/12/04 10:30:36;;;;;;;;;;;11.80;86.40;;;;;;5072583;28;19944;-74
2023/12/04 10:33:04;;;;;;;;;;;11.70;90.60;;;;;;5072452;28;19995;-73
2023/12/04 10:35:33;;;;;;;;;;;11.70;90.50;;;;;;5072351;28;19908;-75
2023/12/04 10:38:02;;;;;;;;;;;11.70;85.70;;;;;;5072419;28;19991;-75
2023/12/04 10:40:29;;;;;;;;;;;11.70;90.70;;;;;;5072587;28;20003;-75
2023/12/04 10:43:13;;;;;;;;;;;11.80;90.70;;;;;;5072265;28;20289;-75
2023/12/04 10:45:40;;;;;;;;;;;11.90;86.50;;;;;;5072151;28;19915;-74
2023/12/04 10:48:06;;;;;;;;;;;11.80;90.40;;;;;;5072276;28;20003;-76
2023/12/04 10:50:35;;;;;;;;;;;11.80;90.80;;;;;;5072292;28;20401;-70
2023/12/04 10:53:01;;;;;;;;;;;11.80;86.80;;;;;;5072174;28;19954;-70
2023/12/04 10:55:27;;;;;;;;;;;11.80;90.80;;;;;;5071798;28;19912;-70
2023/12/04 10:57:53;;;;;;;;;;;11.80;90.80;;;;;;5072223;28;19916;-71
2023/12/04 11:00:21;;;;;;;;;;;11.80;90.40;;;;;;5071484;28;19912;-71
2023/12/04 11:02:48;;;;;;;;;;;11.80;90.50;;;;;;5008513;28;1794822;-70
2023/12/04 11:05:17;;;;;;;;;;;12.00;90.70;;;;;;5072709;28;20293;-70
2023/12/04 11:07:44;;;;;;;;;;;11.90;90.60;;;;;;5073140;28;19916;-72
2023/12/04 11:10:10;;;;;;;;;;;12.30;90.60;;;;;;5072615;28;19909;-70
2023/12/04 11:12:37;;;;;;;;;;;12.10;90.60;;;;;;5072473;28;19908;-71
2023/12/04 11:15:04;;;;;;;;;;;12.00;90.60;;;;;;5072735;28;19908;-70
2023/12/04 11:17:34;;;;;;;;;;;11.90;89.70;;;;;;5072386;28;19970;-70
2023/12/04 11:20:03;;;;;;;;;;;11.90;90.20;;;;;;5054460;28;19909;-75
2023/12/04 11:22:28;;;;;;;;;;;12.00;90.40;;;;;;5072459;28;19954;-75
2023/12/04 11:24:55;;;;;;;;;;;11.90;90.30;;;;;;5072642;28;19982;-76
2023/12/04 11:27:21;;;;;;;;;;;11.90;90.40;;;;;;5072671;28;19912;-75
2023/12/04 11:29:48;;;;;;;;;;;12.00;90.30;;;;;;5072544;28;19912;-75
2023/12/04 11:32:15;;;;;;;;;;;12.40;90.30;;;;;;5072693;28;19908;-75
2023/12/04 11:35:10;;;;;;;;;;;11.90;90.00;;;;;;5072177;28;20397;-76
2023/12/04 11:37:37;;;;;;;;;;;11.90;90.30;;;;;;5040254;28;19947;-75
2023/12/04 11:40:04;;;;;;;;;;;12.00;90.40;;;;;;5072275;28;19916;-77
2023/12/04 11:42:30;;;;;;;;;;;12.00;90.30;;;;;;5072629;28;20315;-77
2023/12/04 11:44:59;;;;;;;;;;;12.00;90.40;;;;;;5072532;28;20293;-76
2023/12/04 11:47:27;;;;;;;;;;;12.10;85.80;;;;;;5072330;28;19916;-76
2023/12/04 11:49:53;;;;;;;;;;;12.00;90.40;;;;;;5075709;28;19908;-75
2023/12/04 11:52:34;;;;;;;;;;;12.00;90.50;;;;;;5076546;28;20414;-76
2023/12/04 11:55:03;;;;;;;;;;;12.20;90.40;;;;;;5074925;28;19943;-75
2023/12/04 11:57:34;;;;;;;;;;;11.90;90.40;;;;;;5076143;28;19916;-75
2023/12/04 12:00:11;;;;;;;;;;;12.00;85.90;;;;;;5075903;28;19924;-76
2023/12/04 12:02:40;;;;;;;;;;;12.00;90.10;;;;;;5075982;28;19924;-75
2023/12/04 12:05:07;;;;;;;;;;;12.10;85.90;;;;;;5076928;28;20281;-70
2023/12/04 12:07:33;;;;;;;;;;;12.00;90.10;;;;;;5076367;28;19909;-70
2023/12/04 12:09:59;;;;;;;;;;;12.10;90.30;;;;;;5076311;28;19948;-70
2023/12/04 12:12:28;;;;;;;;;;;12.60;90.40;;;;;;5076296;28;19944;-69
2023/12/04 12:14:54;;;;;;;;;;;12.00;90.10;;;;;;5076071;28;20263;-70
2023/12/04 12:17:19;;;;;;;;;;;12.10;90.30;;;;;;5075857;28;19923;-71
2023/12/04 12:19:45;;;;;;;;;;;12.10;90.20;;;;;;5074812;28;19959;-71
2023/12/04 12:22:11;;;;;;;;;;;12.00;90.20;;;;;;5075930;28;20004;-69
2023/12/04 12:24:38;;;;;;;;;;;12.10;90.30;;;;;;5076011;28;19913;-69
2023/12/04 12:27:04;;;;;;;;;;;12.20;90.30;;;;;;5075751;28;19908;-68
2023/12/04 12:29:30;;;;;;;;;;;12.00;90.00;;;;;;5075500;28;19915;-68
2023/12/04 12:31:56;;;;;;;;;;;12.10;90.30;;;;;;5076196;28;19908;-73
2023/12/04 12:34:22;;;;;;;;;;;12.20;90.40;;;;;;5075356;28;19909;-74
2023/12/04 12:36:48;;;;;;;;;;;12.10;90.30;;;;;;5075599;28;19973;-74
2023/12/04 12:39:15;;;;;;;;;;;12.20;90.30;;;;;;5075152;28;19915;-76
2023/12/04 12:41:50;;;;;;;;;;;12.10;90.20;;;;;;5075588;28;19916;-75
2023/12/04 12:44:16;;;;;;;;;;;12.10;85.70;;;;;;5075189;28;19919;-70
2023/12/04 12:46:46;;;;;;;;;;;12.10;90.40;;;;;;5075418;28;19966;-70
2023/12/04 12:49:13;;;;;;;;;;;12.10;90.40;;;;;;5075190;28;20422;-69
2023/12/04 12:51:40;;;;;;;;;;;12.10;90.40;;;;;;5075654;28;19908;-70
2023/12/04 12:54:06;;;;;;;;;;;12.20;90.20;;;;;;5075488;28;19908;-70
2023/12/04 12:56:32;;;;;;;;;;;12.20;90.30;;;;;;5075324;28;19916;-70
2023/12/04 12:58:59;;;;;;;;;;;12.30;90.30;;;;;;5075340;28;19916;-70
2023/12/04 13:01:30;;;;;;;;;;;12.20;90.10;;;;;;5074311;28;20375;-72
2023/12/04 13:03:56;;;;;;;;;;;12.10;89.90;;;;;;5075092;28;19939;-71
2023/12/04 13:06:21;;;;;;;;;;;12.20;90.50;;;;;;5074797;28;20382;-71
2023/12/04 13:08:47;;;;;;;;;;;12.20;90.30;;;;;;5074879;28;19918;-70
2023/12/04 13:11:13;;;;;;;;;;;12.20;90.30;;;;;;5074829;28;19908;-72
2023/12/04 13:13:38;;;;;;;;;;;12.20;90.30;;;;;;5075016;28;20267;-77
2023/12/04 13:16:04;;;;;;;;;;;12.20;90.30;;;;;;5074659;28;20344;-75
2023/12/04 13:18:34;;;;;;;;;;;12.20;89.10;;;;;;5074912;28;19916;-74
2023/12/04 13:21:00;;;;;;;;;;;12.20;90.30;;;;;;5074840;28;20294;-75
2023/12/04 13:23:26;;;;;;;;;;;12.50;90.30;;;;;;5074479;28;20393;-75
2023/12/04 13:25:53;;;;;;;;;;;12.70;90.40;;;;;;5074347;28;19908;-75
2023/12/04 13:28:19;;;;;;;;;;;12.10;90.10;;;;;;5074409;28;20350;-75
2023/12/04 13:30:45;;;;;;;;;;;12.20;90.20;;;;;;5075220;28;19908;-71
2023/12/04 13:33:11;;;;;;;;;;;12.20;90.30;;;;;;5074648;28;19915;-71
2023/12/04 13:35:37;;;;;;;;;;;12.20;90.10;;;;;;5074502;28;20364;-71
2023/12/04 13:38:03;;;;;;;;;;;12.30;90.20;;;;;;5074317;28;19912;-71
2023/12/04 13:40:32;;;;;;;;;;;12.10;90.20;;;;;;5074260;28;19915;-71
2023/12/04 13:45:42;;;;;;;;;;;12.20;87.40;;;;;;5080974;28;19927;-75
2023/12/04 13:48:07;;;;;;;;;;;12.20;90.30;;;;;;5074406;28;20320;-75
2023/12/04 13:50:33;;;;;;;;;;;12.20;90.10;;;;;;5073954;28;19987;-75
2023/12/04 13:53:00;;;;;;;;;;;12.40;90.40;;;;;;5074326;28;19908;-76
2023/12/04 13:56:10;;;;;;;;;;;12.30;90.30;;;;;;5074214;28;19909;-73
2023/12/04 13:58:37;;;;;;;;;;;12.20;90.30;;;;;;5074147;28;20349;-74
2023/12/04 14:00:58;;;;;;;;;;;12.20;90.20;;;;;;5073747;28;19966;-74
2023/12/04 14:03:23;;;;;;;;;;;12.20;90.00;;;;;;5073619;28;19952;-74
2023/12/04 14:05:49;;;;;;;;;;;12.30;90.20;;;;;;5073776;28;19951;-75
2023/12/04 14:08:15;;;;;;;;;;;12.30;90.20;;;;;;5073979;28;19908;-75
2023/12/04 14:10:41;;;;;;;;;;;12.30;90.10;;;;;;5073797;28;20290;-71
2023/12/04 14:13:07;;;;;;;;;;;12.40;90.20;;;;;;5072714;28;19912;-71
2023/12/04 14:15:33;;;;;;;;;;;12.20;90.10;;;;;;5073393;28;20370;-70
2023/12/04 14:17:59;;;;;;;;;;;12.20;90.10;;;;;;5073777;28;19913;-70
2023/12/04 14:20:25;;;;;;;;;;;12.30;90.10;;;;;;5065352;28;19912;-70
2023/12/04 14:22:51;;;;;;;;;;;12.30;90.10;;;;;;5073400;28;19962;-70
2023/12/04 14:25:17;;;;;;;;;;;12.20;90.00;;;;;;5073373;28;20412;-70
2023/12/04 14:27:44;;;;;;;;;;;12.30;90.00;;;;;;5074232;28;19986;-74
2023/12/04 14:30:11;;;;;;;;;;;12.30;90.10;;;;;;5073294;28;19916;-75
2023/12/04 14:32:37;;;;;;;;;;;12.30;90.00;;;;;;5073536;28;19909;-75
2023/12/04 14:35:06;;;;;;;;;;;12.20;90.10;;;;;;5073445;28;19915;-74
2023/12/04 14:37:32;;;;;;;;;;;12.30;90.10;;;;;;5073260;28;19983;-75
2023/12/04 14:39:58;;;;;;;;;;;12.30;90.10;;;;;;5073548;28;19908;-74
2023/12/04 14:42:23;;;;;;;;;;;13.70;90.40;;;;;;5073249;28;19908;-75
2023/12/04 14:44:49;;;;;;;;;;;12.30;90.10;;;;;;5073248;28;20337;-75
2023/12/04 14:47:15;;;;;;;;;;;12.30;90.10;;;;;;5073243;28;20102;-76
2023/12/04 14:49:41;;;;;;;;;;;12.30;90.20;;;;;;5073213;28;19987;-76
2023/12/04 14:52:09;;;;;;;;;;;;;;;;;;5073204;28;20402;-76
2023/12/04 14:57:49;;;;;;;;;;;12.30;86.40;;;;;;5079535;28;19923;-70
2023/12/04 15:03:31;;;;;;;;;;;12.20;90.10;;;;;;5072595;28;19928;-71
2023/12/04 15:14:02;;;;;;;;;;;12.20;87.30;;;;;;5073082;28;19963;-72
2023/12/04 15:17:17;;;;;;;;;;;12.20;86.60;;;;;;5072864;28;20332;-71
2023/12/04 15:19:32;;;;;;;;;;;12.30;86.40;;;;;;5060998;28;20370;-70
2023/12/04 15:22:01;;;;;;;;;;;12.20;86.70;;;;;;5072868;28;19971;-71
2023/12/04 15:24:27;;;;;;;;;;;12.20;90.10;;;;;;5072513;28;19919;-75
2023/12/04 15:26:53;;;;;;;;;;;12.20;90.10;;;;;;5072912;28;19912;-74
2023/12/04 15:29:20;;;;;;;;;;;12.30;90.30;;;;;;5072959;28;20418;-76
2023/12/04 15:31:46;;;;;;;;;;;12.40;90.20;;;;;;5072789;28;19909;-76
2023/12/04 15:34:12;;;;;;;;;;;12.30;90.30;;;;;;5072889;28;20012;-75
2023/12/04 15:36:38;;;;;;;;;;;12.30;90.20;;;;;;5072416;28;20077;-76
2023/12/04 15:39:04;;;;;;;;;;;12.30;90.20;;;;;;5072473;28;19934;-74
2023/12/04 15:41:30;;;;;;;;;;;12.50;90.20;;;;;;5072788;28;19909;-76
2023/12/04 15:43:56;;;;;;;;;;;12.30;90.20;;;;;;5072549;28;19908;-76
2023/12/04 15:46:22;;;;;;;;;;;12.30;90.10;;;;;;5072522;28;19915;-76
2023/12/04 15:48:48;;;;;;;;;;;12.50;90.20;;;;;;5072427;28;19986;-73
2023/12/04 15:51:14;;;;;;;;;;;12.20;90.10;;;;;;5072541;28;19962;-73
2023/12/04 15:53:40;;;;;;;;;;;12.20;90.10;;;;;;5073116;28;19908;-71
2023/12/04 15:56:06;;;;;;;;;;;12.30;90.10;;;;;;5072234;28;20432;-70
2023/12/04 15:58:33;;;;;;;;;;;12.30;88.20;;;;;;5072343;28;20271;-70
2023/12/04 16:00:59;;;;;;;;;;;12.30;90.30;;;;;;5072253;28;19909;-71
2023/12/04 16:03:25;;;;;;;;;;;12.40;89.80;;;;;;5072032;28;19921;-73
2023/12/04 16:05:50;;;;;;;;;;;12.30;90.00;;;;;;5072342;28;19909;-74
2023/12/04 16:08:16;;;;;;;;;;;12.30;90.00;;;;;;5072140;28;20385;-75
2023/12/04 16:10:42;;;;;;;;;;;12.30;90.00;;;;;;5072506;28;19908;-73
2023/12/04 16:13:08;;;;;;;;;;;12.20;90.00;;;;;;5071944;28;19935;-74
2023/12/04 16:15:34;;;;;;;;;;;12.40;90.00;;;;;;5072359;28;19909;-74
2023/12/04 16:17:59;;;;;;;;;;;12.20;89.30;;;;;;5071641;28;19917;-73
2023/12/04 16:20:25;;;;;;;;;;;12.20;89.40;;;;;;5072396;28;19914;-74
2023/12/04 16:22:51;;;;;;;;;;;12.30;89.30;;;;;;5072418;28;19912;-74
2023/12/04 16:25:17;;;;;;;;;;;12.20;89.10;;;;;;5072279;28;20046;-74
2023/12/04 16:27:44;;;;;;;;;;;12.30;88.90;;;;;;5072025;28;19908;-76
2023/12/04 16:30:11;;;;;;;;;;;12.20;89.80;;;;;;5071898;28;19916;-75
2023/12/04 16:32:37;;;;;;;;;;;12.20;87.90;;;;;;5072836;28;20289;-75
2023/12/04 16:35:04;;;;;;;;;;;12.30;88.80;;;;;;5073402;28;19990;-74
2023/12/04 16:37:29;;;;;;;;;;;12.10;88.20;;;;;;5075724;28;20309;-76
2023/12/04 16:39:55;;;;;;;;;;;12.20;88.80;;;;;;5075523;28;20025;-73
2023/12/04 16:42:21;;;;;;;;;;;12.10;88.90;;;;;;5075568;28;19909;-73
2023/12/04 16:44:47;;;;;;;;;;;12.10;88.50;;;;;;5075650;28;19944;-76
2023/12/04 16:47:13;;;;;;;;;;;12.20;89.00;;;;;;5075648;28;19962;-72
2023/12/04 16:49:39;;;;;;;;;;;12.10;88.90;;;;;;5075633;28;19912;-75
2023/12/04 16:52:05;;;;;;;;;;;12.10;88.90;;;;;;5075529;28;19978;-73
2023/12/04 16:54:31;;;;;;;;;;;12.10;88.90;;;;;;5075576;28;20323;-73
2023/12/04 16:56:57;;;;;;;;;;;12.20;88.70;;;;;;5075882;28;19925;-73
2023/12/04 16:59:23;;;;;;;;;;;12.10;88.60;;;;;;5075148;28;19908;-72
2023/12/04 17:01:49;;;;;;;;;;;12.10;88.50;;;;;;5074992;28;19912;-73
2023/12/04 17:04:15;;;;;;;;;;;12.30;88.80;;;;;;5075387;28;19920;-73
2023/12/04 17:06:42;;;;;;;;;;;12.10;88.50;;;;;;5075016;28;19908;-72
2023/12/04 17:09:08;;;;;;;;;;;12.00;88.50;;;;;;5074981;28;20401;-71
2023/12/04 17:11:34;;;;;;;;;;;12.00;88.30;;;;;;5074945;28;19909;-70
2023/12/04 17:13:59;;;;;;;;;;;12.10;88.50;;;;;;5074807;28;19909;-70
2023/12/04 17:16:27;;;;;;;;;;;12.00;87.70;;;;;;5074920;28;19963;-70
2023/12/04 17:18:53;;;;;;;;;;;12.10;88.50;;;;;;5074977;28;20325;-71
2023/12/04 17:21:19;;;;;;;;;;;12.10;88.80;;;;;;5075010;28;19909;-71
2023/12/04 17:23:47;;;;;;;;;;;12.10;88.70;;;;;;5074701;28;19915;-72
2023/12/04 17:26:13;;;;;;;;;;;12.10;88.60;;;;;;5075152;28;19916;-75
2023/12/04 17:28:39;;;;;;;;;;;11.90;88.00;;;;;;5074977;28;19917;-74
2023/12/04 17:31:08;;;;;;;;;;;12.00;88.50;;;;;;5056922;28;20270;-74
2023/12/04 17:33:34;;;;;;;;;;;12.00;88.60;;;;;;5074566;28;20500;-75
2023/12/04 17:36:01;;;;;;;;;;;12.00;89.00;;;;;;5074723;28;19912;-75
2023/12/04 17:38:26;;;;;;;;;;;12.00;88.60;;;;;;5074476;28;19908;-71
2023/12/04 17:40:53;;;;;;;;;;;12.00;89.20;;;;;;5074433;28;19908;-71
2023/12/04 17:43:18;;;;;;;;;;;11.90;89.20;;;;;;5074298;28;19908;-71
2023/12/04 17:45:44;;;;;;;;;;;11.90;89.00;;;;;;5073994;28;19915;-71
2023/12/04 17:48:09;;;;;;;;;;;11.90;89.10;;;;;;5073754;28;20311;-70
2023/12/04 17:50:35;;;;;;;;;;;11.90;88.70;;;;;;5074021;28;19908;-70
2023/12/04 17:53:00;;;;;;;;;;;12.00;88.90;;;;;;5074006;28;19909;-70
2023/12/04 17:55:27;;;;;;;;;;;11.90;88.80;;;;;;5073913;28;19948;-74
2023/12/04 17:57:53;;;;;;;;;;;12.00;88.40;;;;;;5073886;28;19917;-70
2023/12/04 18:00:19;;;;;;;;;;;11.90;89.10;;;;;;5073754;28;20359;-70
2023/12/04 18:02:45;;;;;;;;;;;11.90;88.60;;;;;;5073393;28;20007;-70
2023/12/04 18:05:15;;;;;;;;;;;12.00;89.40;;;;;;5073866;28;19985;-71
2023/12/04 18:07:40;;;;;;;;;;;11.90;83.80;;;;;;5073739;28;19931;-70
2023/12/04 18:10:07;;;;;;;;;;;11.90;89.00;;;;;;5073684;28;20382;-72
2023/12/04 18:12:32;;;;;;;;;;;12.10;87.70;;;;;;5072338;28;19973;-70
2023/12/04 18:14:58;;;;;;;;;;;11.90;88.80;;;;;;5073931;28;20259;-75
2023/12/04 18:17:24;;;;;;;;;;;11.90;88.60;;;;;;5073778;28;19939;-75
2023/12/04 18:19:53;;;;;;;;;;;11.90;88.90;;;;;;5073457;28;19908;-76
2023/12/04 18:22:22;;;;;;;;;;;12.00;88.80;;;;;;5073654;28;19918;-73
2023/12/04 18:24:47;;;;;;;;;;;11.90;89.20;;;;;;5073447;28;19920;-75
2023/12/04 18:27:13;;;;;;;;;;;11.90;89.20;;;;;;5073422;28;19908;-74
2023/12/04 18:29:39;;;;;;;;;;;11.80;88.40;;;;;;5073270;28;20422;-73
2023/12/04 18:32:05;;;;;;;;;;;11.90;88.00;;;;;;5073154;28;20008;-74
2023/12/04 18:34:31;;;;;;;;;;;11.80;87.50;;;;;;5073141;28;19908;-74
2023/12/04 18:37:04;;;;;;;;;;;11.80;87.90;;;;;;5073370;28;19917;-73
2023/12/04 18:39:31;;;;;;;;;;;11.80;89.30;;;;;;5073430;28;19987;-74
2023/12/04 18:41:57;;;;;;;;;;;11.80;89.10;;;;;;5073128;28;19958;-75
2023/12/04 18:44:23;;;;;;;;;;;12.10;88.90;;;;;;5073323;28;19908;-75
2023/12/04 18:46:51;;;;;;;;;;;11.80;87.40;;;;;;5072941;28;19963;-74
2023/12/04 18:49:17;;;;;;;;;;;11.80;88.50;;;;;;5073445;28;20289;-75
2023/12/04 18:51:43;;;;;;;;;;;11.90;89.10;;;;;;5072718;28;19909;-74
2023/12/04 18:54:08;;;;;;;;;;;11.80;87.90;;;;;;5072907;28;20046;-75
2023/12/04 18:56:34;;;;;;;;;;;11.90;89.10;;;;;;5076838;28;19924;-76
2023/12/04 18:59:01;;;;;;;;;;;11.80;88.70;;;;;;5071872;28;19948;-77
2023/12/04 19:01:26;;;;;;;;;;;11.70;88.60;;;;;;5072674;28;20443;-71
2023/12/04 19:03:52;;;;;;;;;;;11.70;89.00;;;;;;5072367;28;19982;-71
2023/12/04 19:06:17;;;;;;;;;;;11.80;89.10;;;;;;5072654;28;19913;-71
2023/12/04 19:08:43;;;;;;;;;;;11.80;88.40;;;;;;5072526;28;19908;-70
2023/12/04 19:11:08;;;;;;;;;;;12.00;89.30;;;;;;5072649;28;20437;-72
2023/12/04 19:13:34;;;;;;;;;;;11.60;88.50;;;;;;5072512;28;19915;-71
2023/12/04 19:15:59;;;;;;;;;;;11.80;89.10;;;;;;5072447;28;19978;-71
2023/12/04 19:18:25;;;;;;;;;;;11.70;88.70;;;;;;5073072;28;20347;-75
2023/12/04 19:20:50;;;;;;;;;;;11.70;89.10;;;;;;5072452;28;19908;-75
2023/12/04 19:23:16;;;;;;;;;;;11.90;89.20;;;;;;5072765;28;19915;-75
2023/12/04 19:25:41;;;;;;;;;;;11.60;89.10;;;;;;5072470;28;19999;-75
2023/12/04 19:28:07;;;;;;;;;;;11.80;89.10;;;;;;5072405;28;19966;-75
2023/12/04 19:30:32;;;;;;;;;;;12.00;88.80;;;;;;5072473;28;19909;-74
2023/12/04 19:32:58;;;;;;;;;;;11.80;89.20;;;;;;5072548;28;20038;-75
2023/12/04 19:35:23;;;;;;;;;;;11.60;88.80;;;;;;5072620;28;19908;-73
2023/12/04 19:37:49;;;;;;;;;;;11.80;89.30;;;;;;5072261;28;19938;-74